Time;durP1;ratioP1;P1;durP2;ratioP2;P2;SDS_P1;SDS_P2;PMS_P1;PMS_P2;Temp;Humidity;BMP_temperature;BMP_pressure;BME280_temperature;BME280_humidity;BME280_pressure;Samples;Min_cycle;Max_cycle;Signal;HPM_P1;HPM_P2
2022/05/16 00:00:08;;;;;;;;;;;17.60;84.50;;;;;;4989514;28;19905;-82
2022/05/16 00:02:34;;;;;;;;;;;17.60;84.60;;;;;;4996442;28;20382;-82
2022/05/16 00:04:59;;;;;;;;;;;17.60;84.70;;;;;;4978164;28;19910;-82
2022/05/16 00:07:25;;;;;;;;;;;17.60;84.80;;;;;;4978769;28;20004;-82
2022/05/16 00:09:50;;;;;;;;;;;17.60;84.90;;;;;;4978549;28;20690;-82
2022/05/16 00:12:17;;;;;;;;;;;17.50;84.90;;;;;;4995716;28;19906;-82
2022/05/16 00:14:43;;;;;;;;;;;17.50;84.90;;;;;;5011152;28;19913;-81
2022/05/16 00:17:08;;;;;;;;;;;17.50;85.00;;;;;;5009534;28;20368;-83
2022/05/16 00:19:34;;;;;;;;;;;17.50;85.00;;;;;;4978131;28;19906;-82
2022/05/16 00:21:59;;;;;;;;;;;17.50;85.10;;;;;;4995024;28;20408;-82
2022/05/16 00:24:28;;;;;;;;;;;17.50;85.10;;;;;;4978184;28;20306;-83
2022/05/16 00:26:54;;;;;;;;;;;17.50;85.10;;;;;;4995573;28;19913;-83
2022/05/16 00:29:20;;;;;;;;;;;17.50;85.10;;;;;;4995582;28;19914;-83
2022/05/16 00:31:45;;;;;;;;;;;17.50;85.10;;;;;;4977703;28;19905;-82
2022/05/16 00:34:11;;;;;;;;;;;17.50;85.10;;;;;;4999693;28;19992;-82
2022/05/16 00:36:36;;;;;;;;;;;17.50;85.20;;;;;;4996402;28;19956;-82
2022/05/16 00:39:02;;;;;;;;;;;17.50;85.10;;;;;;5003694;28;19905;-83
2022/05/16 00:41:27;;;;;;;;;;;17.50;84.90;;;;;;5012571;28;19921;-83
2022/05/16 00:43:56;;;;;;;;;;;17.60;84.80;;;;;;5014866;28;19940;-83
2022/05/16 00:46:22;;;;;;;;;;;17.60;84.60;;;;;;5005465;28;20307;-83
2022/05/16 00:48:48;;;;;;;;;;;17.60;84.50;;;;;;5001434;28;19920;-82
2022/05/16 00:51:22;;;;;;;;;;;17.60;84.40;;;;;;5019193;28;19977;-82
2022/05/16 00:53:49;;;;;;;;;;;17.60;84.30;;;;;;5006752;28;20289;-82
2022/05/16 00:56:15;;;;;;;;;;;17.60;84.40;;;;;;5000729;28;19906;-83
2022/05/16 00:58:41;;;;;;;;;;;17.60;84.40;;;;;;5000858;28;20364;-83
2022/05/16 01:04:47;;;;;;;;;;;17.60;84.50;;;;;;5000193;28;19906;-83
2022/05/16 01:06:39;;;;;;;;;;;17.60;84.80;;;;;;5017203;28;19912;-82
2022/05/16 01:09:04;;;;;;;;;;;17.50;84.80;;;;;;5004713;28;20281;-82
2022/05/16 01:11:29;;;;;;;;;;;17.50;84.90;;;;;;4980210;28;19917;-83
2022/05/16 01:13:55;;;;;;;;;;;17.50;84.90;;;;;;5002042;28;19964;-83
2022/05/16 01:16:22;;;;;;;;;;;17.50;85.40;;;;;;5016421;28;19910;-83
2022/05/16 01:18:47;;;;;;;;;;;17.50;85.00;;;;;;4988552;28;19910;-83
2022/05/16 01:21:32;;;;;;;;;;;17.50;85.00;;;;;;4979359;28;20368;-83
2022/05/16 01:24:09;;;;;;;;;;;17.50;85.00;;;;;;5011544;28;19916;-82
2022/05/16 01:26:35;;;;;;;;;;;17.50;85.10;;;;;;4981373;28;19968;-83
2022/05/16 01:29:01;;;;;;;;;;;17.50;85.10;;;;;;5018082;28;19920;-82
2022/05/16 01:31:26;;;;;;;;;;;17.50;85.10;;;;;;5020247;28;19905;-82
2022/05/16 01:33:52;;;;;;;;;;;17.40;85.10;;;;;;5002113;28;19909;-83
2022/05/16 01:36:17;;;;;;;;;;;17.50;85.20;;;;;;4999312;28;19945;-82
2022/05/16 01:38:43;;;;;;;;;;;17.50;85.20;;;;;;4982444;28;19909;-83
2022/05/16 01:41:09;;;;;;;;;;;17.50;85.10;;;;;;4982211;28;20259;-83
2022/05/16 01:43:36;;;;;;;;;;;17.60;85.00;;;;;;5013801;28;19916;-82
2022/05/16 01:46:02;;;;;;;;;;;17.50;84.80;;;;;;4998504;28;19956;-83
2022/05/16 01:48:30;;;;;;;;;;;17.60;84.70;;;;;;4999365;28;19905;-83
2022/05/16 01:51:02;;;;;;;;;;;17.60;84.50;;;;;;4981430;28;20326;-83
2022/05/16 01:53:28;;;;;;;;;;;17.60;84.40;;;;;;5014304;28;20425;-82
2022/05/16 01:55:54;;;;;;;;;;;17.60;84.40;;;;;;4980785;28;19905;-83
2022/05/16 01:58:19;;;;;;;;;;;17.60;84.50;;;;;;4998707;28;19909;-83
2022/05/16 02:00:44;;;;;;;;;;;17.60;84.50;;;;;;5001816;28;19905;-83
2022/05/16 02:03:11;;;;;;;;;;;17.50;84.60;;;;;;5002725;28;19946;-83
2022/05/16 02:05:37;;;;;;;;;;;17.50;84.70;;;;;;5001694;28;20329;-83
2022/05/16 02:08:02;;;;;;;;;;;17.50;84.80;;;;;;4984549;28;19992;-83
2022/05/16 02:10:28;;;;;;;;;;;17.50;84.90;;;;;;4980300;28;20286;-83
2022/05/16 02:12:56;;;;;;;;;;;17.50;85.00;;;;;;4980845;28;20032;-83
2022/05/16 02:15:23;;;;;;;;;;;17.50;85.00;;;;;;4993908;28;19932;-83
2022/05/16 02:17:49;;;;;;;;;;;17.50;85.10;;;;;;5001145;28;19909;-83
2022/05/16 02:20:14;;;;;;;;;;;17.50;85.00;;;;;;4983803;28;19906;-83
2022/05/16 02:25:25;;;;;;;;;;;17.50;85.00;;;;;;5001000;28;19960;-83
2022/05/16 02:27:50;;;;;;;;;;;17.40;85.00;;;;;;5000998;28;19905;-83
2022/05/16 02:30:17;;;;;;;;;;;17.40;85.00;;;;;;4982965;28;19910;-83
2022/05/16 02:32:42;;;;;;;;;;;17.40;85.10;;;;;;5000309;28;19916;-82
2022/05/16 02:35:08;;;;;;;;;;;17.40;85.10;;;;;;5015186;28;19957;-83
2022/05/16 02:37:34;;;;;;;;;;;17.40;85.10;;;;;;4982195;28;20006;-83
2022/05/16 02:39:59;;;;;;;;;;;17.40;85.20;;;;;;4999384;28;19906;-83
2022/05/16 02:42:25;;;;;;;;;;;17.50;85.10;;;;;;4999572;28;20278;-83
2022/05/16 02:44:53;;;;;;;;;;;17.50;85.00;;;;;;4998658;28;20359;-83
2022/05/16 02:47:19;;;;;;;;;;;17.50;84.80;;;;;;5013678;28;20282;-83
2022/05/16 02:49:45;;;;;;;;;;;17.50;84.70;;;;;;4981257;28;20068;-83
2022/05/16 02:52:11;;;;;;;;;;;17.60;84.60;;;;;;4980957;28;19953;-82
2022/05/16 02:54:36;;;;;;;;;;;17.60;84.50;;;;;;4998743;28;20255;-83
2022/05/16 02:57:02;;;;;;;;;;;17.60;84.40;;;;;;5008578;28;19909;-83
2022/05/16 02:59:32;;;;;;;;;;;17.60;84.50;;;;;;5017655;28;19967;-82
2022/05/16 03:01:58;;;;;;;;;;;17.60;84.50;;;;;;5017012;28;19913;-83
2022/05/16 03:04:23;;;;;;;;;;;17.50;84.60;;;;;;4998205;28;19952;-83
2022/05/16 03:06:49;;;;;;;;;;;17.50;84.70;;;;;;4997773;28;19906;-83
2022/05/16 03:09:14;;;;;;;;;;;17.50;84.80;;;;;;5012358;28;19906;-82
2022/05/16 03:11:40;;;;;;;;;;;17.50;84.90;;;;;;4997565;28;20301;-82
2022/05/16 03:14:05;;;;;;;;;;;17.50;85.10;;;;;;4979322;28;20278;-83
2022/05/16 03:16:30;;;;;;;;;;;17.40;84.90;;;;;;4979364;28;20374;-83
2022/05/16 03:18:56;;;;;;;;;;;17.40;84.90;;;;;;4979593;28;20285;-82
2022/05/16 03:21:22;;;;;;;;;;;17.40;84.80;;;;;;4979452;28;19917;-81
2022/05/16 03:23:48;;;;;;;;;;;17.40;84.80;;;;;;4979853;28;19917;-82
2022/05/16 03:26:13;;;;;;;;;;;17.40;84.90;;;;;;4996566;28;20374;-83
2022/05/16 03:28:39;;;;;;;;;;;17.40;84.90;;;;;;4979077;28;20255;-82
2022/05/16 03:31:04;;;;;;;;;;;17.40;84.90;;;;;;4996702;28;19947;-83
2022/05/16 03:33:30;;;;;;;;;;;17.40;85.00;;;;;;4978911;28;19905;-83
2022/05/16 03:35:56;;;;;;;;;;;17.40;85.00;;;;;;4996403;28;19917;-83
2022/05/16 03:41:07;;;;;;;;;;;17.40;85.20;;;;;;4997172;28;19940;-83
2022/05/16 03:43:34;;;;;;;;;;;17.40;85.10;;;;;;4980127;28;19905;-82
2022/05/16 03:46:00;;;;;;;;;;;17.40;85.00;;;;;;5013820;28;20607;-82
2022/05/16 03:48:25;;;;;;;;;;;17.50;84.90;;;;;;4994862;28;19909;-83
2022/05/16 03:50:50;;;;;;;;;;;17.50;84.70;;;;;;4997458;28;19905;-82
2022/05/16 03:53:16;;;;;;;;;;;17.50;84.60;;;;;;4997711;28;20422;-82
2022/05/16 03:55:41;;;;;;;;;;;17.60;84.50;;;;;;4996939;28;20606;-82
2022/05/16 03:58:07;;;;;;;;;;;17.50;84.40;;;;;;5008096;28;19910;-83
2022/05/16 04:00:32;;;;;;;;;;;17.50;84.40;;;;;;5000334;28;19901;-83
2022/05/16 04:02:57;;;;;;;;;;;17.50;85.00;;;;;;4987832;28;19909;-83
2022/05/16 04:05:24;;;;;;;;;;;17.50;84.60;;;;;;4982838;28;20339;-83
2022/05/16 04:07:50;;;;;;;;;;;17.50;84.70;;;;;;4999948;28;19996;-83
2022/05/16 04:10:15;;;;;;;;;;;17.50;84.80;;;;;;4981042;28;20013;-83
2022/05/16 04:12:41;;;;;;;;;;;17.50;84.80;;;;;;4983311;28;20033;-83
2022/05/16 04:15:07;;;;;;;;;;;17.40;84.80;;;;;;4986102;28;20008;-83
2022/05/16 04:17:33;;;;;;;;;;;17.40;84.90;;;;;;4991069;28;19902;-83
2022/05/16 04:19:59;;;;;;;;;;;17.50;85.00;;;;;;5000422;28;19945;-83
2022/05/16 04:22:24;;;;;;;;;;;17.40;84.80;;;;;;5014137;28;20239;-83
2022/05/16 04:24:50;;;;;;;;;;;17.40;84.80;;;;;;4991854;28;20247;-83
2022/05/16 04:27:15;;;;;;;;;;;17.40;84.70;;;;;;4980717;28;19902;-82
2022/05/16 04:29:41;;;;;;;;;;;17.40;84.80;;;;;;4999511;28;19909;-82
2022/05/16 04:32:06;;;;;;;;;;;17.40;84.70;;;;;;5002915;28;19907;-83
2022/05/16 04:34:32;;;;;;;;;;;17.40;84.80;;;;;;5002195;28;19909;-82
2022/05/16 04:36:58;;;;;;;;;;;17.40;84.90;;;;;;5009458;28;19944;-82
2022/05/16 04:39:23;;;;;;;;;;;17.40;84.90;;;;;;4977265;28;19925;-82
2022/05/16 04:44:36;;;;;;;;;;;17.40;85.00;;;;;;5013534;28;19955;-82
2022/05/16 04:47:06;;;;;;;;;;;17.40;84.90;;;;;;5013193;28;19949;-82
2022/05/16 04:49:32;;;;;;;;;;;17.50;84.80;;;;;;5013588;28;19905;-83
2022/05/16 04:51:58;;;;;;;;;;;17.50;84.60;;;;;;4979538;28;19902;-82
2022/05/16 04:54:23;;;;;;;;;;;17.50;84.50;;;;;;4994024;28;19913;-81
2022/05/16 04:56:51;;;;;;;;;;;17.60;84.40;;;;;;4991470;28;20704;-81
2022/05/16 04:59:17;;;;;;;;;;;17.60;84.30;;;;;;4975353;28;19902;-82
2022/05/16 05:01:43;;;;;;;;;;;17.60;84.30;;;;;;4974052;28;19985;-82
2022/05/16 05:04:08;;;;;;;;;;;17.50;84.30;;;;;;4977347;28;19955;-82
2022/05/16 05:06:34;;;;;;;;;;;17.50;84.40;;;;;;4995241;28;19913;-82
2022/05/16 05:09:00;;;;;;;;;;;17.50;84.50;;;;;;4978946;28;20397;-82
2022/05/16 05:16:54;;;;;;;;;;;17.50;84.80;;;;;;4980280;28;19909;-82
2022/05/16 05:19:19;;;;;;;;;;;17.50;84.80;;;;;;4975444;28;19909;-83
2022/05/16 05:21:45;;;;;;;;;;;17.50;84.70;;;;;;4999235;28;19945;-85
2022/05/16 05:24:10;;;;;;;;;;;17.50;84.60;;;;;;4984738;28;20392;-82
2022/05/16 05:26:36;;;;;;;;;;;17.40;84.50;;;;;;4976386;28;21260;-85
2022/05/16 05:29:02;;;;;;;;;;;17.40;84.50;;;;;;4975781;28;20005;-85
2022/05/16 05:31:28;;;;;;;;;;;17.40;84.50;;;;;;4979492;28;19933;-85
2022/05/16 05:33:54;;;;;;;;;;;17.40;84.50;;;;;;4979098;28;19905;-83
2022/05/16 05:36:20;;;;;;;;;;;17.40;84.50;;;;;;4978855;28;19909;-84
2022/05/16 05:38:50;;;;;;;;;;;17.40;84.70;;;;;;4979503;28;19932;-83
2022/05/16 05:41:16;;;;;;;;;;;17.50;84.70;;;;;;4996137;28;19910;-83
2022/05/16 05:43:41;;;;;;;;;;;17.50;84.80;;;;;;4977990;28;19924;-84
2022/05/16 05:46:06;;;;;;;;;;;17.50;84.80;;;;;;4977079;28;19914;-85
2022/05/16 05:48:32;;;;;;;;;;;17.50;84.60;;;;;;4995163;28;19910;-82
2022/05/16 05:50:58;;;;;;;;;;;17.50;84.40;;;;;;4995058;28;19913;-84
2022/05/16 05:53:24;;;;;;;;;;;17.60;84.30;;;;;;4977503;28;19906;-83
2022/05/16 05:55:50;;;;;;;;;;;17.60;84.10;;;;;;4986301;28;19912;-82
2022/05/16 05:58:16;;;;;;;;;;;17.60;83.90;;;;;;4976006;28;19964;-84
2022/05/16 06:00:43;;;;;;;;;;;17.70;83.90;;;;;;4971363;28;20041;-83
2022/05/16 06:03:08;;;;;;;;;;;17.70;83.80;;;;;;4977209;28;19916;-83
2022/05/16 06:05:34;;;;;;;;;;;17.60;83.80;;;;;;4977326;28;19905;-83
2022/05/16 06:08:03;;;;;;;;;;;17.60;83.90;;;;;;4976356;28;20570;-84
2022/05/16 06:10:29;;;;;;;;;;;17.60;84.00;;;;;;4994642;28;19944;-82
2022/05/16 06:12:54;;;;;;;;;;;17.60;84.10;;;;;;4976231;28;20386;-84
2022/05/16 06:15:20;;;;;;;;;;;17.60;84.10;;;;;;4975321;28;19945;-83
2022/05/16 06:17:46;;;;;;;;;;;17.60;84.10;;;;;;4976981;28;20332;-84
2022/05/16 06:20:12;;;;;;;;;;;17.60;84.10;;;;;;4977352;28;19917;-81
2022/05/16 06:22:38;;;;;;;;;;;17.60;84.10;;;;;;4976537;28;19944;-82
2022/05/16 06:27:49;;;;;;;;;;;17.60;84.20;;;;;;4994080;28;19960;-81
2022/05/16 06:30:17;;;;;;;;;;;17.60;84.20;;;;;;4994225;28;19917;-80
2022/05/16 06:32:43;;;;;;;;;;;17.60;84.20;;;;;;4977625;28;19913;-81
2022/05/16 06:35:09;;;;;;;;;;;17.60;84.10;;;;;;4976067;28;19917;-83
2022/05/16 06:37:35;;;;;;;;;;;17.60;84.10;;;;;;4975961;28;19920;-83
2022/05/16 06:40:01;;;;;;;;;;;17.60;84.00;;;;;;4977634;28;19917;-84
2022/05/16 06:42:26;;;;;;;;;;;17.60;83.90;;;;;;4977720;28;19933;-83
2022/05/16 06:44:53;;;;;;;;;;;17.60;83.70;;;;;;4977325;28;19918;-84
2022/05/16 06:47:18;;;;;;;;;;;17.70;83.90;;;;;;4977304;28;19917;-86
2022/05/16 06:49:44;;;;;;;;;;;17.80;83.70;;;;;;4976588;28;19909;-85
2022/05/16 06:52:09;;;;;;;;;;;17.80;83.60;;;;;;4978407;28;20350;-84
2022/05/16 06:54:34;;;;;;;;;;;17.80;83.40;;;;;;4996081;28;19953;-85
2022/05/16 06:57:00;;;;;;;;;;;17.80;83.20;;;;;;4978246;28;20389;-86
2022/05/16 06:59:25;;;;;;;;;;;17.90;83.00;;;;;;4999794;28;20386;-85
2022/05/16 07:01:51;;;;;;;;;;;17.90;82.70;;;;;;5018624;28;19909;-86
2022/05/16 07:04:16;;;;;;;;;;;17.90;82.60;;;;;;5017832;28;20325;-85
2022/05/16 07:06:42;;;;;;;;;;;17.90;82.60;;;;;;4985215;28;19909;-85
2022/05/16 07:09:07;;;;;;;;;;;17.90;82.50;;;;;;4984898;28;19913;-86
2022/05/16 07:11:32;;;;;;;;;;;17.90;83.10;;;;;;5017399;28;19905;-85
2022/05/16 07:13:58;;;;;;;;;;;17.90;82.60;;;;;;5017730;28;19909;-86
2022/05/16 07:16:24;;;;;;;;;;;17.90;82.60;;;;;;5016321;28;19906;-86
2022/05/16 07:18:49;;;;;;;;;;;17.90;82.70;;;;;;4983238;28;19976;-86
2022/05/16 07:21:15;;;;;;;;;;;17.90;82.80;;;;;;4983395;28;19906;-86
2022/05/16 07:23:40;;;;;;;;;;;17.90;82.80;;;;;;4982703;28;19914;-85
2022/05/16 07:28:50;;;;;;;;;;;17.90;82.60;;;;;;4999778;28;20000;-85
2022/05/16 07:31:15;;;;;;;;;;;17.90;82.70;;;;;;4982114;28;19949;-86
2022/05/16 07:33:41;;;;;;;;;;;17.90;82.70;;;;;;4982077;28;19929;-86
2022/05/16 07:36:06;;;;;;;;;;;17.90;82.70;;;;;;4998549;28;20367;-85
2022/05/16 07:38:32;;;;;;;;;;;18.00;82.70;;;;;;4998864;28;19909;-85
2022/05/16 07:40:57;;;;;;;;;;;18.00;82.70;;;;;;4980376;28;19906;-85
2022/05/16 07:43:24;;;;;;;;;;;18.00;82.60;;;;;;4997897;28;19933;-86
2022/05/16 07:45:49;;;;;;;;;;;18.00;82.60;;;;;;4997701;28;19917;-86
2022/05/16 07:48:15;;;;;;;;;;;18.00;82.50;;;;;;4997287;28;19906;-85
2022/05/16 07:50:41;;;;;;;;;;;18.10;82.40;;;;;;5011950;28;19905;-85
2022/05/16 07:53:11;;;;;;;;;;;18.10;82.20;;;;;;4977883;28;20641;-85
2022/05/16 07:55:37;;;;;;;;;;;18.20;82.00;;;;;;4977503;28;20343;-85
2022/05/16 07:58:02;;;;;;;;;;;18.30;81.80;;;;;;4996608;28;19910;-85
2022/05/16 08:00:28;;;;;;;;;;;18.30;81.50;;;;;;4996788;28;19906;-85
2022/05/16 08:02:53;;;;;;;;;;;18.30;81.40;;;;;;4978996;28;19905;-85
2022/05/16 08:05:19;;;;;;;;;;;18.30;81.30;;;;;;5010814;28;19921;-86
2022/05/16 08:10:29;;;;;;;;;;;18.30;81.30;;;;;;4997163;28;20032;-85
2022/05/16 08:12:55;;;;;;;;;;;18.30;81.50;;;;;;4996397;28;20386;-86
2022/05/16 08:15:20;;;;;;;;;;;18.30;81.70;;;;;;4996199;28;19909;-85
2022/05/16 08:17:45;;;;;;;;;;;18.10;81.60;;;;;;4995349;28;20004;-86
2022/05/16 08:20:11;;;;;;;;;;;18.30;81.70;;;;;;5010433;28;19910;-85
2022/05/16 08:22:36;;;;;;;;;;;18.30;81.70;;;;;;5014787;28;19906;-83
2022/05/16 08:25:02;;;;;;;;;;;18.30;81.70;;;;;;5001662;28;19941;-82
2022/05/16 08:27:28;;;;;;;;;;;18.30;81.70;;;;;;4978961;28;19949;-84
2022/05/16 08:29:54;;;;;;;;;;;18.30;81.80;;;;;;4977340;28;19918;-83
2022/05/16 08:32:23;;;;;;;;;;;18.30;81.80;;;;;;4994806;28;20049;-82
2022/05/16 08:34:49;;;;;;;;;;;18.30;81.80;;;;;;4977008;28;19906;-84
2022/05/16 08:40:03;;;;;;;;;;;18.30;81.80;;;;;;4994037;28;20584;-82
2022/05/16 08:42:44;;;;;;;;;;;18.30;81.70;;;;;;5009691;28;19909;-84
2022/05/16 08:45:14;;;;;;;;;;;18.40;81.70;;;;;;4976621;28;19914;-83
2022/05/16 08:47:55;;;;;;;;;;;18.40;81.80;;;;;;4976776;28;19917;-84
2022/05/16 08:50:26;;;;;;;;;;;18.40;82.30;;;;;;5009747;28;19960;-81
2022/05/16 08:52:58;;;;;;;;;;;18.40;81.90;;;;;;4996307;28;20388;-82
2022/05/16 08:55:50;;;;;;;;;;;18.40;81.80;;;;;;4995022;28;19910;-85
2022/05/16 08:58:37;;;;;;;;;;;18.40;81.80;;;;;;4993177;28;20622;-83
2022/05/16 09:01:05;;;;;;;;;;;18.40;81.80;;;;;;4980061;28;20004;-83
2022/05/16 09:03:34;;;;;;;;;;;18.40;81.80;;;;;;4995108;28;19914;-80
2022/05/16 09:06:02;;;;;;;;;;;18.40;81.80;;;;;;4976985;28;19906;-81
2022/05/16 09:08:39;;;;;;;;;;;18.40;81.80;;;;;;4977597;28;19914;-80
2022/05/16 09:11:05;;;;;;;;;;;18.30;81.90;;;;;;4996656;28;20394;-78
2022/05/16 09:13:30;;;;;;;;;;;18.30;81.90;;;;;;4997184;28;19910;-82
2022/05/16 09:16:05;;;;;;;;;;;18.30;82.10;;;;;;4996167;28;19957;-82
2022/05/16 09:18:32;;;;;;;;;;;18.30;82.20;;;;;;5010588;28;19913;-80
2022/05/16 09:21:07;;;;;;;;;;;18.30;82.30;;;;;;4977304;28;19910;-81
2022/05/16 09:23:44;;;;;;;;;;;18.30;82.60;;;;;;4992983;28;19922;-81
2022/05/16 09:26:18;;;;;;;;;;;18.30;82.40;;;;;;4993005;28;20334;-83
2022/05/16 09:28:50;;;;;;;;;;;18.30;82.40;;;;;;4976044;28;19918;-81
2022/05/16 09:31:26;;;;;;;;;;;18.30;82.40;;;;;;4976299;28;19913;-83
2022/05/16 09:33:56;;;;;;;;;;;18.30;82.40;;;;;;4978462;28;19910;-84
2022/05/16 09:36:23;;;;;;;;;;;18.30;82.40;;;;;;4976963;28;19948;-85
2022/05/16 09:38:49;;;;;;;;;;;18.30;82.30;;;;;;4977756;28;20300;-83
2022/05/16 09:41:25;;;;;;;;;;;18.30;82.30;;;;;;4978015;28;19917;-82
2022/05/16 09:43:53;;;;;;;;;;;18.30;82.30;;;;;;4978460;28;19921;-82
2022/05/16 09:46:31;;;;;;;;;;;18.30;82.30;;;;;;4995104;28;19917;-84
2022/05/16 09:49:09;;;;;;;;;;;18.30;82.30;;;;;;4994727;28;19910;-83
2022/05/16 09:51:43;;;;;;;;;;;18.30;82.40;;;;;;4998977;28;19905;-84
2022/05/16 09:54:10;;;;;;;;;;;18.30;82.40;;;;;;4981176;28;19913;-84
2022/05/16 09:56:36;;;;;;;;;;;18.40;82.30;;;;;;4981074;28;19905;-82
2022/05/16 09:59:02;;;;;;;;;;;18.40;82.00;;;;;;4981243;28;19916;-82
2022/05/16 10:01:40;;;;;;;;;;;18.40;81.80;;;;;;4981111;28;19968;-81
2022/05/16 10:04:17;;;;;;;;;;;18.50;81.70;;;;;;4980450;28;19920;-85
2022/05/16 10:06:44;;;;;;;;;;;18.50;82.10;;;;;;4997606;28;19916;-84
2022/05/16 10:09:14;;;;;;;;;;;18.50;81.60;;;;;;5015509;28;19956;-85
2022/05/16 10:11:40;;;;;;;;;;;18.50;81.70;;;;;;4984787;28;20422;-85
2022/05/16 10:14:06;;;;;;;;;;;18.40;81.80;;;;;;4984409;28;19906;-83
2022/05/16 10:16:32;;;;;;;;;;;18.40;82.00;;;;;;5000721;28;19920;-83
2022/05/16 10:19:01;;;;;;;;;;;18.40;82.20;;;;;;5000549;28;19907;-83
2022/05/16 10:21:29;;;;;;;;;;;18.30;82.30;;;;;;5001248;28;19906;-82
2022/05/16 10:23:55;;;;;;;;;;;18.30;82.50;;;;;;5000637;28;19910;-84
2022/05/16 10:26:22;;;;;;;;;;;18.30;82.60;;;;;;4983639;28;19910;-86
2022/05/16 10:28:51;;;;;;;;;;;18.30;82.70;;;;;;5000294;28;20336;-83
2022/05/16 10:34:23;;;;;;;;;;;18.20;82.90;;;;;;4999310;28;19916;-82
2022/05/16 10:36:50;;;;;;;;;;;18.20;83.00;;;;;;5000044;28;19993;-82
2022/05/16 10:39:19;;;;;;;;;;;18.20;83.00;;;;;;4981055;28;19910;-82
2022/05/16 10:41:49;;;;;;;;;;;18.20;83.10;;;;;;4999475;28;20684;-82
2022/05/16 10:44:16;;;;;;;;;;;18.20;83.10;;;;;;4981420;28;19914;-82
2022/05/16 10:46:44;;;;;;;;;;;18.20;83.20;;;;;;4998334;28;20453;-82
2022/05/16 10:49:16;;;;;;;;;;;18.20;83.20;;;;;;4998977;28;19913;-83
2022/05/16 10:52:00;;;;;;;;;;;18.20;83.20;;;;;;4981087;28;19968;-82
2022/05/16 10:54:27;;;;;;;;;;;18.20;83.20;;;;;;5013537;28;19905;-82
2022/05/16 10:57:07;;;;;;;;;;;18.20;83.10;;;;;;5013146;28;19964;-83
2022/05/16 10:59:51;;;;;;;;;;;18.20;82.90;;;;;;4980551;28;19917;-82
2022/05/16 11:02:16;;;;;;;;;;;18.30;82.80;;;;;;5013255;28;19905;-82
2022/05/16 11:04:50;;;;;;;;;;;18.30;82.70;;;;;;4998233;28;19913;-81
2022/05/16 11:07:49;;;;;;;;;;;18.30;82.60;;;;;;4980276;28;19984;-82
2022/05/16 11:10:33;;;;;;;;;;;18.30;82.50;;;;;;4979418;28;19996;-82
2022/05/16 11:13:08;;;;;;;;;;;18.20;82.50;;;;;;4997861;28;19913;-83
2022/05/16 11:15:36;;;;;;;;;;;18.30;82.70;;;;;;4997584;28;19997;-82
2022/05/16 11:18:06;;;;;;;;;;;18.20;82.80;;;;;;4997674;28;20009;-83
2022/05/16 11:20:43;;;;;;;;;;;18.20;82.90;;;;;;5012787;28;19956;-82
2022/05/16 11:23:25;;;;;;;;;;;18.20;82.90;;;;;;4979307;28;20362;-83
2022/05/16 11:26:14;;;;;;;;;;;18.20;83.00;;;;;;4996937;28;19909;-82
2022/05/16 11:29:17;;;;;;;;;;;18.20;83.10;;;;;;4987346;28;19913;-82
2022/05/16 11:31:32;;;;;;;;;;;18.20;83.00;;;;;;4998739;28;20333;-84
2022/05/16 11:33:57;;;;;;;;;;;18.20;83.00;;;;;;5014655;28;19909;-83
2022/05/16 11:36:44;;;;;;;;;;;18.20;83.00;;;;;;4999611;28;19905;-83
2022/05/16 11:39:10;;;;;;;;;;;18.20;83.00;;;;;;5014690;28;19913;-83
2022/05/16 11:41:51;;;;;;;;;;;18.20;83.00;;;;;;4981543;28;19905;-83
2022/05/16 11:44:21;;;;;;;;;;;18.20;83.10;;;;;;4999324;28;19910;-83
2022/05/16 11:46:46;;;;;;;;;;;18.20;83.10;;;;;;4998770;28;20378;-83
2022/05/16 11:49:22;;;;;;;;;;;18.20;83.10;;;;;;4981345;28;19905;-83
2022/05/16 11:52:08;;;;;;;;;;;18.20;83.20;;;;;;4998236;28;19929;-83
2022/05/16 11:54:39;;;;;;;;;;;18.20;83.10;;;;;;4998286;28;19910;-82
2022/05/16 12:02:35;;;;;;;;;;;18.30;82.80;;;;;;4997702;28;19910;-83
2022/05/16 12:05:00;;;;;;;;;;;18.30;82.70;;;;;;4979438;28;19913;-82
2022/05/16 12:07:32;;;;;;;;;;;18.30;82.60;;;;;;4997249;28;20005;-83
2022/05/16 12:09:57;;;;;;;;;;;18.30;82.60;;;;;;4979605;28;19906;-83
2022/05/16 12:12:34;;;;;;;;;;;18.30;82.60;;;;;;4996890;28;19923;-82
2022/05/16 12:15:17;;;;;;;;;;;18.30;82.80;;;;;;4997085;28;19906;-83
2022/05/16 12:17:52;;;;;;;;;;;18.30;82.90;;;;;;4978895;28;20326;-82
2022/05/16 12:20:33;;;;;;;;;;;18.20;83.00;;;;;;4996735;28;19956;-83
2022/05/16 12:22:59;;;;;;;;;;;18.20;83.10;;;;;;4996290;28;19906;-83
2022/05/16 12:25:24;;;;;;;;;;;18.20;83.20;;;;;;4996151;28;19909;-82
2022/05/16 12:28:10;;;;;;;;;;;18.20;83.30;;;;;;4996375;28;19932;-82
2022/05/16 12:30:39;;;;;;;;;;;18.20;83.40;;;;;;4996766;28;19915;-83
2022/05/16 12:33:28;;;;;;;;;;;18.20;83.40;;;;;;4978751;28;19940;-83
2022/05/16 12:35:54;;;;;;;;;;;18.20;83.40;;;;;;4978189;28;19956;-83
2022/05/16 12:38:21;;;;;;;;;;;18.10;83.40;;;;;;4978889;28;20330;-84
2022/05/16 12:40:55;;;;;;;;;;;18.20;83.40;;;;;;4978480;28;19929;-82
2022/05/16 12:43:23;;;;;;;;;;;18.20;83.50;;;;;;5011228;28;20359;-84
2022/05/16 12:45:55;;;;;;;;;;;18.20;83.50;;;;;;4978407;28;20286;-83
2022/05/16 12:48:36;;;;;;;;;;;18.20;83.50;;;;;;4978093;28;19917;-82
2022/05/16 12:51:24;;;;;;;;;;;18.20;83.50;;;;;;4978413;28;19905;-84
2022/05/16 12:54:06;;;;;;;;;;;18.20;83.60;;;;;;4985753;28;19910;-84
2022/05/16 12:56:45;;;;;;;;;;;18.20;83.50;;;;;;4995800;28;19906;-82
2022/05/16 12:59:18;;;;;;;;;;;18.20;83.40;;;;;;4995608;28;20315;-83
2022/05/16 13:01:46;;;;;;;;;;;18.20;83.20;;;;;;4996318;28;20433;-83
2022/05/16 13:04:17;;;;;;;;;;;18.30;83.10;;;;;;4994886;28;20286;-83
2022/05/16 13:06:46;;;;;;;;;;;18.30;83.00;;;;;;4994722;28;19937;-83
2022/05/16 13:09:13;;;;;;;;;;;18.30;82.90;;;;;;4977833;28;19906;-83
2022/05/16 13:11:41;;;;;;;;;;;18.30;82.90;;;;;;4978008;28;20290;-83
2022/05/16 13:14:12;;;;;;;;;;;18.30;83.00;;;;;;4977781;28;19906;-84
2022/05/16 13:16:39;;;;;;;;;;;18.30;83.20;;;;;;4995041;28;19932;-84
2022/05/16 13:19:10;;;;;;;;;;;18.20;83.20;;;;;;5010434;28;19959;-83
2022/05/16 13:21:49;;;;;;;;;;;18.20;83.30;;;;;;4978050;28;19905;-82
2022/05/16 13:24:15;;;;;;;;;;;18.20;83.40;;;;;;4997139;28;20358;-83
2022/05/16 13:29:33;;;;;;;;;;;18.20;84.10;;;;;;5001727;28;19955;-83
2022/05/16 13:31:59;;;;;;;;;;;18.10;83.50;;;;;;5017239;28;19912;-83
2022/05/16 13:34:43;;;;;;;;;;;18.20;83.60;;;;;;4984022;28;19996;-82
2022/05/16 13:37:09;;;;;;;;;;;18.20;83.50;;;;;;4983503;28;19912;-83
2022/05/16 13:39:36;;;;;;;;;;;18.20;83.60;;;;;;4983699;28;20274;-83
2022/05/16 13:42:01;;;;;;;;;;;18.20;83.50;;;;;;5001131;28;20317;-83
2022/05/16 13:44:38;;;;;;;;;;;18.20;83.50;;;;;;4983394;28;20000;-83
2022/05/16 13:47:05;;;;;;;;;;;18.20;83.50;;;;;;5000568;28;19917;-83
2022/05/16 13:49:32;;;;;;;;;;;18.20;83.60;;;;;;4983170;28;20394;-84
2022/05/16 13:51:58;;;;;;;;;;;18.20;83.60;;;;;;4983763;28;19906;-83
2022/05/16 13:54:29;;;;;;;;;;;18.20;83.60;;;;;;5000062;28;19906;-83
2022/05/16 13:56:56;;;;;;;;;;;18.20;83.60;;;;;;4982023;28;19906;-82
2022/05/16 13:59:22;;;;;;;;;;;18.30;83.40;;;;;;4982217;28;19913;-82
2022/05/16 14:01:50;;;;;;;;;;;18.30;83.40;;;;;;5000152;28;20313;-83
2022/05/16 14:04:18;;;;;;;;;;;18.30;83.30;;;;;;4981946;28;19971;-82
2022/05/16 14:06:46;;;;;;;;;;;18.30;83.20;;;;;;4998887;28;19906;-83
2022/05/16 14:09:20;;;;;;;;;;;18.30;83.20;;;;;;4999710;28;19905;-82
2022/05/16 14:11:47;;;;;;;;;;;18.30;83.10;;;;;;4981878;28;19945;-82
2022/05/16 14:14:13;;;;;;;;;;;18.30;83.20;;;;;;4981813;28;20373;-82
2022/05/16 14:16:40;;;;;;;;;;;18.30;83.30;;;;;;4999112;28;19928;-82
2022/05/16 14:19:10;;;;;;;;;;;18.20;83.40;;;;;;5014049;28;19941;-83
2022/05/16 14:22:11;;;;;;;;;;;18.20;83.50;;;;;;4998994;28;20421;-82
2022/05/16 14:24:43;;;;;;;;;;;18.20;83.60;;;;;;4938496;29;20002;-83
2022/05/16 14:27:22;;;;;;;;;;;18.20;83.70;;;;;;4987995;28;19906;-82
2022/05/16 14:29:58;;;;;;;;;;;18.20;83.90;;;;;;4998818;28;19914;-82
2022/05/16 14:32:23;;;;;;;;;;;18.10;83.90;;;;;;4998738;28;19909;-83
2022/05/16 14:34:57;;;;;;;;;;;18.10;83.90;;;;;;4997989;28;19953;-82
2022/05/16 14:37:30;;;;;;;;;;;18.10;84.00;;;;;;4998161;28;19916;-82
2022/05/16 14:40:01;;;;;;;;;;;18.10;84.00;;;;;;4998024;28;19992;-82
2022/05/16 14:42:27;;;;;;;;;;;18.10;84.10;;;;;;4998055;28;19905;-82
2022/05/16 14:45:02;;;;;;;;;;;18.10;84.10;;;;;;4998315;28;20362;-81
2022/05/16 14:47:41;;;;;;;;;;;18.20;84.20;;;;;;4997856;28;19912;-81
2022/05/16 14:50:07;;;;;;;;;;;18.10;84.20;;;;;;5013731;28;19959;-84
2022/05/16 14:52:35;;;;;;;;;;;18.10;84.20;;;;;;4984821;28;19977;-83
2022/05/16 14:55:06;;;;;;;;;;;18.10;84.10;;;;;;4982979;28;19965;-84
2022/05/16 14:57:31;;;;;;;;;;;18.20;84.30;;;;;;4982742;28;19913;-85
2022/05/16 14:59:57;;;;;;;;;;;18.20;84.10;;;;;;4982473;28;19906;-83
2022/05/16 15:05:06;;;;;;;;;;;18.20;83.90;;;;;;4999031;28;19917;-83